Time;durP1;ratioP1;P1;durP2;ratioP2;P2;SDS_P1;SDS_P2;PMS_P1;PMS_P2;Temp;Humidity;BMP_temperature;BMP_pressure;BME280_temperature;BME280_humidity;BME280_pressure;Samples;Min_cycle;Max_cycle;Signal;HPM_P1;HPM_P2
2023/07/22 00:00:22;;;;;;;4.57;2.53;;;;;;;;;;6160168;23;20018;-80
2023/07/22 00:02:48;;;;;;;4.70;2.60;;;;;;;;;;6162025;23;20017;-81
2023/07/22 00:05:21;;;;;;;6.05;2.47;;;;;;;;;;6158521;23;20093;-78
2023/07/22 00:07:48;;;;;;;4.95;2.50;;;;;;;;;;6097267;23;20030;-77
2023/07/22 00:10:15;;;;;;;4.13;2.33;;;;;;;;;;6095784;23;20372;-77
2023/07/22 00:12:41;;;;;;;3.88;2.22;;;;;;;;;;6100921;23;20210;-77
2023/07/22 00:15:11;;;;;;;4.25;2.50;;;;;;;;;;6100346;23;20054;-78
2023/07/22 00:17:38;;;;;;;5.00;3.10;;;;;;;;;;6074499;23;20054;-79
2023/07/22 00:20:10;;;;;;;5.35;3.00;;;;;;;;;;6074376;23;20451;-77
2023/07/22 00:22:39;;;;;;;16.60;3.30;;;;;;;;;;6074791;23;20483;-78
2023/07/22 00:25:11;;;;;;;5.35;2.70;;;;;;;;;;6071464;23;20026;-77
2023/07/22 00:27:38;;;;;;;9.65;3.10;;;;;;;;;;6075909;23;20475;-78
2023/07/22 00:30:11;;;;;;;6.05;2.85;;;;;;;;;;6072766;23;20066;-77
2023/07/22 00:32:39;;;;;;;5.10;2.95;;;;;;;;;;6071884;23;20025;-78
2023/07/22 00:35:07;;;;;;;7.00;3.17;;;;;;;;;;6073624;23;20015;-78
2023/07/22 00:37:34;;;;;;;6.97;2.75;;;;;;;;;;6074020;23;20023;-79
2023/07/22 00:40:11;;;;;;;4.72;3.00;;;;;;;;;;6074213;23;20070;-78
2023/07/22 00:42:38;;;;;;;5.32;2.72;;;;;;;;;;6074061;23;20019;-79
2023/07/22 00:45:06;;;;;;;4.53;2.90;;;;;;;;;;6075722;23;20486;-78
2023/07/22 00:47:34;;;;;;;5.22;2.90;;;;;;;;;;6074617;23;20082;-80
2023/07/22 00:50:03;;;;;;;5.82;2.65;;;;;;;;;;6074209;23;20055;-80
2023/07/22 00:52:31;;;;;;;4.20;2.78;;;;;;;;;;6075513;23;20019;-80
2023/07/22 00:54:57;;;;;;;5.43;2.92;;;;;;;;;;6079510;23;20034;-80
2023/07/22 00:57:26;;;;;;;4.32;2.72;;;;;;;;;;6077134;23;20483;-79
2023/07/22 00:59:53;;;;;;;4.50;2.90;;;;;;;;;;6074174;23;20019;-79
2023/07/22 01:02:21;;;;;;;4.93;3.33;;;;;;;;;;6074580;23;20022;-78
2023/07/22 01:04:49;;;;;;;5.00;2.97;;;;;;;;;;6073401;23;20019;-79
2023/07/22 01:07:16;;;;;;;5.50;3.05;;;;;;;;;;6073817;23;20019;-79
2023/07/22 01:09:44;;;;;;;5.07;3.03;;;;;;;;;;6074879;23;20086;-79
2023/07/22 01:12:13;;;;;;;5.70;3.17;;;;;;;;;;6073080;23;20019;-78
2023/07/22 01:14:43;;;;;;;4.63;2.95;;;;;;;;;;6073760;23;20029;-78
2023/07/22 01:17:11;;;;;;;7.40;2.87;;;;;;;;;;6073520;23;20103;-79
2023/07/22 01:19:38;;;;;;;5.55;3.40;;;;;;;;;;6072388;23;20018;-78
2023/07/22 01:22:07;;;;;;;7.47;3.33;;;;;;;;;;6072476;23;20050;-79
2023/07/22 01:24:35;;;;;;;4.60;2.55;;;;;;;;;;6072741;23;20023;-79
2023/07/22 01:27:03;;;;;;;4.55;2.80;;;;;;;;;;6075653;23;20039;-77
2023/07/22 01:29:30;;;;;;;5.82;2.78;;;;;;;;;;6076978;23;20094;-77
2023/07/22 01:31:56;;;;;;;5.05;2.95;;;;;;;;;;6077208;23;20042;-78
2023/07/22 01:34:24;;;;;;;4.60;2.95;;;;;;;;;;6078091;23;20030;-78
2023/07/22 01:36:51;;;;;;;5.38;3.00;;;;;;;;;;6077984;23;20074;-77
2023/07/22 01:39:19;;;;;;;5.28;2.80;;;;;;;;;;6074675;23;20106;-79
2023/07/22 01:41:47;;;;;;;5.47;3.28;;;;;;;;;;6071992;23;20460;-79
2023/07/22 01:44:14;;;;;;;4.85;2.80;;;;;;;;;;6072767;23;20049;-79
2023/07/22 01:46:41;;;;;;;7.07;3.22;;;;;;;;;;6072840;23;20037;-79
2023/07/22 01:49:12;;;;;;;6.55;4.43;;;;;;;;;;6072502;23;20415;-78
2023/07/22 01:51:39;;;;;;;7.78;6.00;;;;;;;;;;6071304;23;20018;-79
2023/07/22 01:54:05;;;;;;;7.03;5.60;;;;;;;;;;6071808;23;20015;-79
2023/07/22 01:56:32;;;;;;;9.55;6.60;;;;;;;;;;6071364;23;20035;-78
2023/07/22 01:59:00;;;;;;;7.03;5.30;;;;;;;;;;6071772;23;20129;-78
2023/07/22 02:01:28;;;;;;;8.02;5.75;;;;;;;;;;6071300;23;20019;-78
2023/07/22 02:03:55;;;;;;;7.55;5.07;;;;;;;;;;6072267;23;20026;-78
2023/07/22 02:06:22;;;;;;;7.25;5.22;;;;;;;;;;6072582;23;20320;-79
2023/07/22 02:08:48;;;;;;;6.68;4.47;;;;;;;;;;6073395;23;20023;-79
2023/07/22 02:11:15;;;;;;;7.60;4.72;;;;;;;;;;6072007;23;20030;-79
2023/07/22 02:13:42;;;;;;;7.20;5.07;;;;;;;;;;6072411;23;20019;-80
2023/07/22 02:16:11;;;;;;;6.97;5.10;;;;;;;;;;6072493;23;20030;-79
2023/07/22 02:18:38;;;;;;;7.45;4.55;;;;;;;;;;6072542;23;20098;-79
2023/07/22 02:21:05;;;;;;;6.45;4.85;;;;;;;;;;6072261;23;20019;-79
2023/07/22 02:23:31;;;;;;;6.82;5.15;;;;;;;;;;6073136;23;20041;-79
2023/07/22 02:25:58;;;;;;;7.43;5.13;;;;;;;;;;6074916;23;20019;-80
2023/07/22 02:28:26;;;;;;;9.95;5.43;;;;;;;;;;6075570;23;20015;-80
2023/07/22 02:30:53;;;;;;;6.78;4.85;;;;;;;;;;6074206;23;20038;-79
2023/07/22 02:33:22;;;;;;;7.57;5.68;;;;;;;;;;6075122;23;20074;-79
2023/07/22 02:35:49;;;;;;;6.60;5.18;;;;;;;;;;6074064;23;20046;-80
2023/07/22 02:38:16;;;;;;;6.95;4.65;;;;;;;;;;6074388;23;20074;-79
2023/07/22 02:40:43;;;;;;;6.25;4.50;;;;;;;;;;6073740;23;20074;-79
2023/07/22 02:43:09;;;;;;;5.93;4.32;;;;;;;;;;6074215;23;20030;-79
2023/07/22 02:45:38;;;;;;;5.72;4.10;;;;;;;;;;6073409;23;20034;-79
2023/07/22 02:48:05;;;;;;;6.03;4.13;;;;;;;;;;6074258;23;20022;-79
2023/07/22 02:50:33;;;;;;;6.80;4.28;;;;;;;;;;6074306;23;20026;-79
2023/07/22 02:53:00;;;;;;;6.72;5.25;;;;;;;;;;6077594;23;20034;-78
2023/07/22 02:55:27;;;;;;;7.07;5.05;;;;;;;;;;6076690;23;20490;-79
2023/07/22 02:57:53;;;;;;;8.10;4.95;;;;;;;;;;6074037;23;20018;-79
2023/07/22 03:00:24;;;;;;;8.15;6.03;;;;;;;;;;6073252;23;20026;-80
2023/07/22 03:02:52;;;;;;;;;;;;;;;;;;6075496;23;20019;-80
2023/07/22 03:05:19;;;;;;;7.80;5.60;;;;;;;;;;6073922;23;19918;-78
2023/07/22 03:07:47;;;;;;;8.25;6.05;;;;;;;;;;6071985;23;20019;-78
2023/07/22 03:10:14;;;;;;;7.50;5.75;;;;;;;;;;6070793;23;20047;-77
2023/07/22 03:12:41;;;;;;;7.32;5.43;;;;;;;;;;6070487;23;20019;-77
2023/07/22 03:15:09;;;;;;;8.52;5.50;;;;;;;;;;6070921;23;20356;-77
2023/07/22 03:17:36;;;;;;;6.82;5.05;;;;;;;;;;6071176;23;20046;-78
2023/07/22 03:20:05;;;;;;;8.82;6.00;;;;;;;;;;6071464;23;20082;-78
2023/07/22 03:22:32;;;;;;;7.93;5.90;;;;;;;;;;6071318;23;20043;-78
2023/07/22 03:25:00;;;;;;;7.60;5.32;;;;;;;;;;6083695;23;20018;-79
2023/07/22 03:27:27;;;;;;;8.85;6.03;;;;;;;;;;6075295;23;20110;-79
2023/07/22 03:29:54;;;;;;;10.68;6.25;;;;;;;;;;6073597;23;20066;-79
2023/07/22 03:32:20;;;;;;;9.52;5.97;;;;;;;;;;6073582;23;20489;-79
2023/07/22 03:34:47;;;;;;;9.18;5.72;;;;;;;;;;6073967;23;20102;-79
2023/07/22 03:37:14;;;;;;;6.32;4.72;;;;;;;;;;6073495;23;20094;-79
2023/07/22 03:39:41;;;;;;;6.03;4.20;;;;;;;;;;6073088;23;20022;-79
2023/07/22 03:42:09;;;;;;;6.57;4.22;;;;;;;;;;6074890;23;20054;-79
2023/07/22 03:44:36;;;;;;;7.75;5.18;;;;;;;;;;6074144;23;20027;-79
2023/07/22 03:47:03;;;;;;;7.18;4.13;;;;;;;;;;6073505;23;20070;-79
2023/07/22 03:49:29;;;;;;;6.30;3.90;;;;;;;;;;6073692;23;20026;-78
2023/07/22 03:51:56;;;;;;;5.35;3.78;;;;;;;;;;6073761;23;20074;-79
2023/07/22 03:54:22;;;;;;;6.10;4.22;;;;;;;;;;6073593;23;20022;-79
2023/07/22 03:56:48;;;;;;;5.93;3.85;;;;;;;;;;6073695;23;20086;-79
2023/07/22 03:59:17;;;;;;;7.18;5.15;;;;;;;;;;6073335;23;20022;-79
2023/07/22 04:01:43;;;;;;;6.88;4.75;;;;;;;;;;6073843;23;20026;-78
2023/07/22 04:04:10;;;;;;;7.82;4.85;;;;;;;;;;6074428;23;20015;-79
2023/07/22 04:06:37;;;;;;;6.65;4.53;;;;;;;;;;6073829;23;20019;-78
2023/07/22 04:09:04;;;;;;;7.45;4.95;;;;;;;;;;6072186;23;20471;-78
2023/07/22 04:11:30;;;;;;;5.43;3.80;;;;;;;;;;6071936;23;20041;-78
2023/07/22 04:13:57;;;;;;;6.85;4.30;;;;;;;;;;6073892;23;20030;-79
2023/07/22 04:16:25;;;;;;;6.57;3.85;;;;;;;;;;6072254;23;20041;-79
2023/07/22 04:18:52;;;;;;;6.15;3.92;;;;;;;;;;6073035;23;20021;-78
2023/07/22 04:21:19;;;;;;;7.47;4.43;;;;;;;;;;6078453;23;20025;-78
2023/07/22 04:23:45;;;;;;;5.82;4.53;;;;;;;;;;6079314;23;20023;-78
2023/07/22 04:26:12;;;;;;;6.80;4.30;;;;;;;;;;6078046;23;20114;-78
2023/07/22 04:28:39;;;;;;;7.20;4.70;;;;;;;;;;6076439;23;20641;-79
2023/07/22 04:31:05;;;;;;;5.65;3.97;;;;;;;;;;6073333;23;20026;-77
2023/07/22 04:33:33;;;;;;;8.15;5.18;;;;;;;;;;6072755;23;20092;-77
2023/07/22 04:36:01;;;;;;;6.13;4.38;;;;;;;;;;6071328;23;20022;-77
2023/07/22 04:38:28;;;;;;;5.80;3.90;;;;;;;;;;6070716;23;20546;-77
2023/07/22 04:40:54;;;;;;;6.97;4.25;;;;;;;;;;6072724;23;20071;-77
2023/07/22 04:43:21;;;;;;;6.82;4.18;;;;;;;;;;6072578;23;20019;-77
2023/07/22 04:45:48;;;;;;;5.60;3.42;;;;;;;;;;6072516;23;20026;-78
2023/07/22 04:48:16;;;;;;;5.40;3.40;;;;;;;;;;6072292;23;20019;-78
2023/07/22 04:50:45;;;;;;;6.40;3.63;;;;;;;;;;6071309;23;20019;-78
2023/07/22 04:53:14;;;;;;;5.43;3.72;;;;;;;;;;6072180;23;20019;-78
2023/07/22 04:55:41;;;;;;;5.35;3.17;;;;;;;;;;6071621;23;20476;-78
2023/07/22 04:58:10;;;;;;;6.28;3.67;;;;;;;;;;6073287;23;20029;-78
2023/07/22 05:00:37;;;;;;;5.45;3.45;;;;;;;;;;6072869;23;20047;-78
2023/07/22 05:03:04;;;;;;;6.15;3.20;;;;;;;;;;6073380;23;20025;-78
2023/07/22 05:05:31;;;;;;;5.38;3.15;;;;;;;;;;6073857;23;20090;-78
2023/07/22 05:07:59;;;;;;;5.68;3.13;;;;;;;;;;6075013;23;20038;-76
2023/07/22 05:10:28;;;;;;;4.63;3.20;;;;;;;;;;6075474;23;20070;-77
2023/07/22 05:12:56;;;;;;;5.83;3.40;;;;;;;;;;6083594;23;20026;-77
2023/07/22 05:15:23;;;;;;;6.68;3.33;;;;;;;;;;6072739;23;20018;-77
2023/07/22 05:17:50;;;;;;;5.88;3.63;;;;;;;;;;6068233;23;20559;-77
2023/07/22 05:20:17;;;;;;;6.00;3.15;;;;;;;;;;6071226;23;20019;-78
2023/07/22 05:22:44;;;;;;;7.57;3.92;;;;;;;;;;6072835;23;20082;-77
2023/07/22 05:25:12;;;;;;;5.43;3.10;;;;;;;;;;6069192;23;20022;-77
2023/07/22 05:27:40;;;;;;;5.53;3.30;;;;;;;;;;6068265;23;20034;-77
2023/07/22 05:30:08;;;;;;;5.93;3.30;;;;;;;;;;6066800;23;20019;-77
2023/07/22 05:32:36;;;;;;;5.18;3.17;;;;;;;;;;6067770;23;20074;-77
2023/07/22 05:35:04;;;;;;;4.50;2.88;;;;;;;;;;6068574;23;20021;-77
2023/07/22 05:37:31;;;;;;;5.82;3.38;;;;;;;;;;6067712;23;20058;-77
2023/07/22 05:39:58;;;;;;;5.47;2.90;;;;;;;;;;6066943;23;20019;-77
2023/07/22 05:42:26;;;;;;;5.40;2.67;;;;;;;;;;6067473;23;20534;-77
2023/07/22 05:44:55;;;;;;;5.05;2.40;;;;;;;;;;6070393;23;20166;-76
2023/07/22 05:47:22;;;;;;;5.25;3.03;;;;;;;;;;6070957;23;20032;-77
2023/07/22 05:49:49;;;;;;;4.68;2.53;;;;;;;;;;6071677;23;20086;-76
2023/07/22 05:52:16;;;;;;;5.55;2.70;;;;;;;;;;6069921;23;20023;-78
2023/07/22 05:54:42;;;;;;;4.47;3.20;;;;;;;;;;6071576;23;20022;-77
2023/07/22 05:57:09;;;;;;;5.40;2.78;;;;;;;;;;6070656;23;20093;-79
2023/07/22 05:59:37;;;;;;;5.70;2.97;;;;;;;;;;6071226;23;20015;-77
2023/07/22 06:02:05;;;;;;;5.47;2.47;;;;;;;;;;6068119;23;20340;-77
2023/07/22 06:04:32;;;;;;;4.75;2.63;;;;;;;;;;6069892;23;20072;-77
2023/07/22 06:06:59;;;;;;;4.50;2.30;;;;;;;;;;6112774;23;20014;-81
2023/07/22 06:09:26;;;;;;;5.75;2.80;;;;;;;;;;6162517;23;20021;-79
2023/07/22 06:11:53;;;;;;;4.45;2.35;;;;;;;;;;6160071;23;20017;-81
2023/07/22 06:14:19;;;;;;;4.00;2.22;;;;;;;;;;6162510;23;20025;-80
2023/07/22 06:16:47;;;;;;;4.50;2.45;;;;;;;;;;6161691;23;20013;-80
2023/07/22 06:19:14;;;;;;;4.50;2.28;;;;;;;;;;6163675;23;20385;-81
2023/07/22 06:21:40;;;;;;;4.82;2.50;;;;;;;;;;6163913;23;20049;-81
2023/07/22 06:24:07;;;;;;;4.57;2.50;;;;;;;;;;6176051;23;20021;-81
2023/07/22 06:26:33;;;;;;;4.53;2.50;;;;;;;;;;6168274;23;20353;-81
2023/07/22 06:29:00;;;;;;;4.68;2.45;;;;;;;;;;6170416;23;20041;-80
2023/07/22 06:31:30;;;;;;;4.45;2.42;;;;;;;;;;6163771;23;20024;-82
2023/07/22 06:33:59;;;;;;;4.40;2.25;;;;;;;;;;6163818;23;20026;-81
2023/07/22 06:36:26;;;;;;;4.00;2.08;;;;;;;;;;6164668;23;20033;-82
2023/07/22 06:38:52;;;;;;;3.92;2.28;;;;;;;;;;6163477;23;20021;-81
2023/07/22 06:41:19;;;;;;;4.20;2.25;;;;;;;;;;6162950;23;20484;-81
2023/07/22 06:43:46;;;;;;;4.00;2.20;;;;;;;;;;6162357;23;20302;-81
2023/07/22 06:46:12;;;;;;;3.88;1.92;;;;;;;;;;6165768;23;20014;-80
2023/07/22 06:48:39;;;;;;;4.00;2.17;;;;;;;;;;6164620;23;20027;-82
2023/07/22 06:51:08;;;;;;;5.15;2.40;;;;;;;;;;6164403;23;20021;-81
2023/07/22 06:53:34;;;;;;;5.30;2.30;;;;;;;;;;6163810;23;20018;-82
2023/07/22 06:56:10;;;;;;;4.57;2.30;;;;;;;;;;6164749;23;20032;-81
2023/07/22 06:58:36;;;;;;;5.03;2.22;;;;;;;;;;6169786;23;20045;-81
2023/07/22 07:01:03;;;;;;;4.38;2.22;;;;;;;;;;6169364;23;20028;-81
2023/07/22 07:03:30;;;;;;;4.45;2.20;;;;;;;;;;6169986;23;20021;-81
2023/07/22 07:05:57;;;;;;;5.63;2.38;;;;;;;;;;6170684;23;20018;-82
2023/07/22 07:08:25;;;;;;;4.43;2.00;;;;;;;;;;6168119;23;20073;-81
2023/07/22 07:10:52;;;;;;;4.43;2.47;;;;;;;;;;6163534;23;20093;-83
2023/07/22 07:13:18;;;;;;;5.10;2.35;;;;;;;;;;6163684;23;20069;-81
2023/07/22 07:15:48;;;;;;;3.42;2.03;;;;;;;;;;6163394;23;20052;-81
2023/07/22 07:18:15;;;;;;;3.80;1.80;;;;;;;;;;6163675;23;20025;-80
2023/07/22 07:20:41;;;;;;;2.85;1.55;;;;;;;;;;6163862;23;20023;-80
2023/07/22 07:23:08;;;;;;;3.97;1.92;;;;;;;;;;6163248;23;20048;-80
2023/07/22 07:25:36;;;;;;;4.57;2.00;;;;;;;;;;6163605;23;20017;-80
2023/07/22 07:28:02;;;;;;;4.10;2.15;;;;;;;;;;6162773;23;20017;-80
2023/07/22 07:30:29;;;;;;;3.50;1.90;;;;;;;;;;6169861;23;20090;-80
2023/07/22 07:32:55;;;;;;;5.60;2.00;;;;;;;;;;6169830;23;20403;-82
2023/07/22 07:35:22;;;;;;;5.15;2.10;;;;;;;;;;6163520;23;20029;-82
2023/07/22 07:37:48;;;;;;;4.30;1.85;;;;;;;;;;6161323;23;20105;-83
2023/07/22 07:40:15;;;;;;;3.70;1.85;;;;;;;;;;6162067;23;20052;-82
2023/07/22 07:42:43;;;;;;;3.67;2.10;;;;;;;;;;6161645;23;20028;-82
2023/07/22 07:45:10;;;;;;;4.70;2.05;;;;;;;;;;6161613;23;20017;-82
2023/07/22 07:47:37;;;;;;;4.38;2.10;;;;;;;;;;6161916;23;20466;-83
2023/07/22 07:50:04;;;;;;;4.22;2.03;;;;;;;;;;6161100;23;20028;-82
2023/07/22 07:52:30;;;;;;;4.40;2.00;;;;;;;;;;6161937;23;20534;-82
2023/07/22 07:54:57;;;;;;;4.28;1.90;;;;;;;;;;6161492;23;20072;-83
2023/07/22 07:57:24;;;;;;;4.70;2.13;;;;;;;;;;6162994;23;20108;-83
2023/07/22 07:59:52;;;;;;;4.80;2.53;;;;;;;;;;6161459;23;20021;-86
2023/07/22 08:02:18;;;;;;;4.10;2.38;;;;;;;;;;6160563;23;20486;-83
2023/07/22 08:04:45;;;;;;;3.75;1.80;;;;;;;;;;6164162;23;20039;-83
2023/07/22 08:07:16;;;;;;;8.05;3.30;;;;;;;;;;6166233;23;20017;-82
2023/07/22 08:09:48;;;;;;;4.50;2.42;;;;;;;;;;6161889;23;20018;-84
2023/07/22 08:12:15;;;;;;;4.57;2.00;;;;;;;;;;6162146;23;20033;-82
2023/07/22 08:14:41;;;;;;;3.40;2.00;;;;;;;;;;6164501;23;20023;-82
2023/07/22 08:17:10;;;;;;;3.65;2.00;;;;;;;;;;6166669;23;20028;-81
2023/07/22 08:19:36;;;;;;;5.43;2.58;;;;;;;;;;6161145;23;20059;-82
2023/07/22 08:22:03;;;;;;;6.22;3.00;;;;;;;;;;6165218;23;20059;-82
2023/07/22 08:24:30;;;;;;;5.82;3.00;;;;;;;;;;6166339;23;20028;-79
2023/07/22 08:26:56;;;;;;;5.28;2.30;;;;;;;;;;6169050;23;20028;-80
2023/07/22 08:29:23;;;;;;;7.38;2.97;;;;;;;;;;6164082;23;20017;-80
2023/07/22 08:31:50;;;;;;;5.30;2.65;;;;;;;;;;6159658;23;20104;-80
2023/07/22 08:34:17;;;;;;;4.82;2.63;;;;;;;;;;6158473;23;20357;-80
2023/07/22 08:36:44;;;;;;;3.70;1.88;;;;;;;;;;6160608;23;20061;-78
2023/07/22 08:39:11;;;;;;;4.35;2.20;;;;;;;;;;6160859;23;20017;-78
2023/07/22 08:41:39;;;;;;;2.95;1.70;;;;;;;;;;6158161;23;20357;-78
2023/07/22 08:44:08;;;;;;;4.43;2.10;;;;;;;;;;6157810;23;20017;-79
2023/07/22 08:46:35;;;;;;;5.25;2.10;;;;;;;;;;6157983;23;20048;-79
2023/07/22 08:49:03;;;;;;;4.40;1.80;;;;;;;;;;6157828;23;20018;-80
2023/07/22 08:51:32;;;;;;;3.30;1.55;;;;;;;;;;6156400;23;20462;-80
2023/07/22 08:54:00;;;;;;;8.23;1.98;;;;;;;;;;6157480;23;20021;-80
2023/07/22 08:56:29;;;;;;;4.47;2.10;;;;;;;;;;6157437;23;20022;-80
2023/07/22 08:58:56;;;;;;;3.72;1.50;;;;;;;;;;6157924;23;20092;-80
2023/07/22 09:01:24;;;;;;;3.45;1.70;;;;;;;;;;6162583;23;20026;-81
2023/07/22 09:03:52;;;;;;;3.03;1.50;;;;;;;;;;6161655;23;20024;-81
2023/07/22 09:06:19;;;;;;;3.55;1.65;;;;;;;;;;6161512;23;20409;-81
2023/07/22 09:08:47;;;;;;;3.28;1.52;;;;;;;;;;6162769;23;20109;-80
2023/07/22 09:11:14;;;;;;;4.25;1.73;;;;;;;;;;6161474;23;20028;-81
2023/07/22 09:13:45;;;;;;;2.78;1.48;;;;;;;;;;6162394;23;20354;-80
2023/07/22 09:16:13;;;;;;;3.38;1.60;;;;;;;;;;6163165;23;20021;-80
2023/07/22 09:18:40;;;;;;;3.33;1.58;;;;;;;;;;6162039;23;20021;-80
2023/07/22 09:21:06;;;;;;;3.03;1.40;;;;;;;;;;6161852;23;20104;-80
2023/07/22 09:23:34;;;;;;;2.83;1.50;;;;;;;;;;6160766;23;20021;-81
2023/07/22 09:26:11;;;;;;;3.55;1.75;;;;;;;;;;6161758;23;20030;-81
2023/07/22 09:28:52;;;;;;;5.43;1.75;;;;;;;;;;6161722;23;20024;-81
2023/07/22 09:31:19;;;;;;;3.00;1.60;;;;;;;;;;6167745;23;20022;-82
2023/07/22 09:33:45;;;;;;;2.92;1.52;;;;;;;;;;6163826;23;20406;-81
2023/07/22 09:36:13;;;;;;;2.55;1.40;;;;;;;;;;6164548;23;20342;-81
2023/07/22 09:38:39;;;;;;;2.92;1.45;;;;;;;;;;6163945;23;20022;-81
2023/07/22 09:41:06;;;;;;;4.35;1.73;;;;;;;;;;6164902;23;20022;-81
2023/07/22 09:43:37;;;;;;;3.00;1.52;;;;;;;;;;6166164;23;20657;-80
2023/07/22 09:46:10;;;;;;;2.80;1.50;;;;;;;;;;6165346;23;20049;-79
2023/07/22 09:48:44;;;;;;;3.10;1.42;;;;;;;;;;6167332;23;20053;-82
2023/07/22 09:51:16;;;;;;;3.30;1.65;;;;;;;;;;6162485;23;20029;-81
2023/07/22 09:54:00;;;;;;;3.20;1.40;;;;;;;;;;6162079;23;20021;-80
2023/07/22 09:56:27;;;;;;;3.60;1.88;;;;;;;;;;6160668;23;20021;-83
2023/07/22 09:58:55;;;;;;;3.83;1.92;;;;;;;;;;6161511;23;20021;-80
2023/07/22 10:01:25;;;;;;;3.33;1.73;;;;;;;;;;6161463;23;20018;-80
2023/07/22 10:03:55;;;;;;;3.00;1.50;;;;;;;;;;6161775;23;20532;-80
2023/07/22 10:06:22;;;;;;;4.75;1.77;;;;;;;;;;6161231;23;20026;-81
2023/07/22 10:08:49;;;;;;;3.28;1.48;;;;;;;;;;6160260;23;20017;-79
2023/07/22 10:11:16;;;;;;;3.55;1.65;;;;;;;;;;6161512;23;20022;-80
2023/07/22 10:13:43;;;;;;;2.90;1.60;;;;;;;;;;6162346;23;20131;-80
2023/07/22 10:16:12;;;;;;;3.15;1.48;;;;;;;;;;6161657;23;20028;-80
2023/07/22 10:18:41;;;;;;;4.30;1.48;;;;;;;;;;6167951;23;20025;-80
2023/07/22 10:21:08;;;;;;;3.92;1.75;;;;;;;;;;6168540;23;20021;-80
2023/07/22 10:23:36;;;;;;;3.95;1.63;;;;;;;;;;6164494;23;20028;-80
2023/07/22 10:26:03;;;;;;;3.97;1.70;;;;;;;;;;6162526;23;20092;-80
2023/07/22 10:28:30;;;;;;;2.72;1.42;;;;;;;;;;6166409;23;20024;-80
2023/07/22 10:30:58;;;;;;;3.75;1.67;;;;;;;;;;6166781;23;20027;-81
2023/07/22 10:33:27;;;;;;;2.97;1.70;;;;;;;;;;6169409;23;20053;-80
2023/07/22 10:36:05;;;;;;;4.18;1.50;;;;;;;;;;6164434;23;20025;-79
2023/07/22 10:38:32;;;;;;;3.75;1.40;;;;;;;;;;6162038;23;20025;-80
2023/07/22 10:40:59;;;;;;;3.55;1.70;;;;;;;;;;6160635;23;20029;-80
2023/07/22 10:43:27;;;;;;;9.73;2.00;;;;;;;;;;6161322;23;20026;-80
2023/07/22 10:45:56;;;;;;;3.58;1.40;;;;;;;;;;6162491;23;20032;-80
2023/07/22 10:48:26;;;;;;;4.47;1.83;;;;;;;;;;6161944;23;20097;-80
2023/07/22 10:50:58;;;;;;;3.13;1.48;;;;;;;;;;6162920;23;20025;-80
2023/07/22 10:53:30;;;;;;;3.60;1.50;;;;;;;;;;6164137;23;20068;-80
2023/07/22 10:56:04;;;;;;;3.47;1.58;;;;;;;;;;6164011;23;20457;-78
2023/07/22 10:58:31;;;;;;;3.90;1.58;;;;;;;;;;6161297;23;20025;-78
2023/07/22 11:01:23;;;;;;;3.92;1.73;;;;;;;;;;6160954;23;20021;-79
2023/07/22 11:04:30;;;;;;;3.40;1.60;;;;;;;;;;6162086;23;20105;-79
2023/07/22 11:07:00;;;;;;;3.00;1.50;;;;;;;;;;6164615;23;20045;-80
2023/07/22 11:09:41;;;;;;;3.00;1.55;;;;;;;;;;6163258;23;20029;-80
2023/07/22 11:12:10;;;;;;;3.55;1.80;;;;;;;;;;6163126;23;20022;-79
2023/07/22 11:14:40;;;;;;;3.72;1.60;;;;;;;;;;6162894;23;20022;-80
2023/07/22 11:17:08;;;;;;;;;;;;;;;;;;6162945;23;20026;-80
2023/07/22 11:19:35;;;;;;;4.55;2.00;;;;;;;;;;6162331;23;19940;-80
2023/07/22 11:22:03;;;;;;;4.32;1.88;;;;;;;;;;6162291;23;20040;-80
2023/07/22 11:24:30;;;;;;;2.97;1.85;;;;;;;;;;6164482;23;20021;-81
2023/07/22 11:26:56;;;;;;;3.72;1.60;;;;;;;;;;6165794;23;20029;-80
2023/07/22 11:29:23;;;;;;;3.55;1.65;;;;;;;;;;6165310;23;20029;-80
2023/07/22 11:31:51;;;;;;;2.92;1.67;;;;;;;;;;6165751;23;20046;-80
2023/07/22 11:34:20;;;;;;;3.40;1.50;;;;;;;;;;6165753;23;20018;-79
2023/07/22 11:36:47;;;;;;;3.13;1.70;;;;;;;;;;6164808;23;20077;-80
2023/07/22 11:39:16;;;;;;;4.20;1.80;;;;;;;;;;6174422;23;20051;-78
2023/07/22 11:41:44;;;;;;;3.25;1.50;;;;;;;;;;6168363;23;20027;-81
2023/07/22 11:44:13;;;;;;;2.72;1.35;;;;;;;;;;6163246;23;20028;-80
2023/07/22 11:46:48;;;;;;;2.95;1.60;;;;;;;;;;6161758;23;20021;-80
2023/07/22 11:49:23;;;;;;;5.22;1.70;;;;;;;;;;6163032;23;20072;-79
2023/07/22 11:51:49;;;;;;;2.67;1.33;;;;;;;;;;6165136;23;20017;-79
2023/07/22 11:54:17;;;;;;;3.08;1.63;;;;;;;;;;6161841;23;20018;-79
2023/07/22 11:56:44;;;;;;;3.85;1.88;;;;;;;;;;6160543;23;20358;-78
2023/07/22 11:59:11;;;;;;;4.05;1.50;;;;;;;;;;6161734;23;20025;-78
2023/07/22 12:01:37;;;;;;;3.00;1.40;;;;;;;;;;6161720;23;20029;-79
2023/07/22 12:04:11;;;;;;;10.00;1.75;;;;;;;;;;6164765;23;20024;-79
2023/07/22 12:06:38;;;;;;;2.55;1.75;;;;;;;;;;6154948;23;20022;-77
2023/07/22 12:09:04;;;;;;;3.17;1.75;;;;;;;;;;6152624;23;20032;-77
2023/07/22 12:11:34;;;;;;;3.25;1.90;;;;;;;;;;6154186;23;20438;-77
2023/07/22 12:14:11;;;;;;;3.40;1.90;;;;;;;;;;6154856;23;20064;-77
2023/07/22 12:16:38;;;;;;;3.72;1.70;;;;;;;;;;6155138;23;20018;-76
2023/07/22 12:19:05;;;;;;;5.00;1.92;;;;;;;;;;6154287;23;20021;-77
2023/07/22 12:21:33;;;;;;;4.82;2.15;;;;;;;;;;6154676;23;20022;-77
2023/07/22 12:23:59;;;;;;;3.10;1.70;;;;;;;;;;6155215;23;20049;-77
2023/07/22 12:26:26;;;;;;;3.05;1.73;;;;;;;;;;6161379;23;20018;-76
2023/07/22 12:28:54;;;;;;;3.33;1.58;;;;;;;;;;6161610;23;20350;-77
2023/07/22 12:31:21;;;;;;;2.78;1.50;;;;;;;;;;6155727;23;20022;-76
2023/07/22 12:33:48;;;;;;;3.50;1.58;;;;;;;;;;6155277;23;20029;-76
2023/07/22 12:36:14;;;;;;;2.33;1.52;;;;;;;;;;6155157;23;20022;-75
2023/07/22 12:38:41;;;;;;;3.20;1.45;;;;;;;;;;6154516;23;20104;-76
2023/07/22 12:41:07;;;;;;;3.35;1.83;;;;;;;;;;6154054;23;20020;-76
2023/07/22 12:43:34;;;;;;;3.58;1.60;;;;;;;;;;6154700;23;20072;-76
2023/07/22 12:46:02;;;;;;;3.92;1.70;;;;;;;;;;6154420;23;20024;-77
2023/07/22 12:48:28;;;;;;;3.38;1.80;;;;;;;;;;6154541;23;20024;-76
2023/07/22 12:50:55;;;;;;;3.58;1.75;;;;;;;;;;6154691;23;20533;-76
2023/07/22 12:53:22;;;;;;;3.28;1.65;;;;;;;;;;6155959;23;20529;-76
2023/07/22 12:55:48;;;;;;;4.57;2.13;;;;;;;;;;6154741;23;20026;-76
2023/07/22 12:58:15;;;;;;;3.35;1.80;;;;;;;;;;6154476;23;20028;-76
2023/07/22 13:00:42;;;;;;;3.45;1.63;;;;;;;;;;6153983;23;20514;-76
2023/07/22 13:03:10;;;;;;;3.08;1.45;;;;;;;;;;6155529;23;20028;-77
2023/07/22 13:05:36;;;;;;;3.20;1.80;;;;;;;;;;6154222;23;20024;-76
2023/07/22 13:08:03;;;;;;;3.15;1.70;;;;;;;;;;6153491;23;20492;-76
2023/07/22 13:10:37;;;;;;;3.80;1.98;;;;;;;;;;6153969;23;20398;-77
2023/07/22 13:13:04;;;;;;;3.10;1.50;;;;;;;;;;6155019;23;20030;-76
2023/07/22 13:15:30;;;;;;;3.13;1.65;;;;;;;;;;6157038;23;20097;-82
2023/07/22 13:17:57;;;;;;;4.78;2.10;;;;;;;;;;6156434;23;20067;-76
2023/07/22 13:20:25;;;;;;;3.97;1.77;;;;;;;;;;6159507;23;20022;-82
2023/07/22 13:22:51;;;;;;;2.88;1.70;;;;;;;;;;6158422;23;20018;-78
2023/07/22 13:25:18;;;;;;;3.72;1.70;;;;;;;;;;6157785;23;20105;-77
2023/07/22 13:27:44;;;;;;;3.75;1.80;;;;;;;;;;6155447;23;20096;-77
2023/07/22 13:30:11;;;;;;;3.53;1.95;;;;;;;;;;6157289;23;20018;-77
2023/07/22 13:32:41;;;;;;;3.80;1.98;;;;;;;;;;6159054;23;20055;-80
2023/07/22 13:35:08;;;;;;;4.30;2.05;;;;;;;;;;6160914;23;20017;-76
2023/07/22 13:37:36;;;;;;;3.03;1.63;;;;;;;;;;6159909;23;20032;-76
2023/07/22 13:40:09;;;;;;;2.90;1.70;;;;;;;;;;6161461;23;20049;-77
2023/07/22 13:42:35;;;;;;;3.33;1.55;;;;;;;;;;6163337;23;20029;-76
2023/07/22 13:45:02;;;;;;;3.72;1.70;;;;;;;;;;6163426;23;20116;-76
2023/07/22 13:47:29;;;;;;;3.63;1.95;;;;;;;;;;6161045;23;20041;-76
2023/07/22 13:49:55;;;;;;;3.10;1.58;;;;;;;;;;6163521;23;20033;-77
2023/07/22 13:52:22;;;;;;;3.60;2.28;;;;;;;;;;6160706;23;20024;-76
2023/07/22 13:54:50;;;;;;;3.03;1.77;;;;;;;;;;6160002;23;20104;-77
2023/07/22 13:57:17;;;;;;;3.83;1.98;;;;;;;;;;6156826;23;20021;-77
2023/07/22 13:59:43;;;;;;;3.15;1.75;;;;;;;;;;6159461;23;20063;-77
2023/07/22 14:02:10;;;;;;;3.88;1.92;;;;;;;;;;6158509;23;20342;-77
2023/07/22 14:04:37;;;;;;;3.75;1.80;;;;;;;;;;6163987;23;20018;-77
2023/07/22 14:07:03;;;;;;;3.22;1.63;;;;;;;;;;6163046;23;20029;-77
2023/07/22 14:09:30;;;;;;;3.50;1.80;;;;;;;;;;6159498;23;20053;-77
2023/07/22 14:11:58;;;;;;;3.38;1.67;;;;;;;;;;6157241;23;20304;-77
2023/07/22 14:14:28;;;;;;;4.45;2.08;;;;;;;;;;6157917;23;20025;-77
2023/07/22 14:16:55;;;;;;;2.95;1.83;;;;;;;;;;6159296;23;20335;-83
2023/07/22 14:19:22;;;;;;;3.83;1.98;;;;;;;;;;6169778;23;20025;-86
2023/07/22 14:21:48;;;;;;;4.03;2.03;;;;;;;;;;6176607;23;20032;-84
2023/07/22 14:24:15;;;;;;;5.07;1.90;;;;;;;;;;6160838;23;20018;-78
2023/07/22 14:26:42;;;;;;;4.13;1.90;;;;;;;;;;6165225;23;20056;-78
2023/07/22 14:29:10;;;;;;;4.80;2.50;;;;;;;;;;6160821;23;20100;-77
2023/07/22 14:31:36;;;;;;;3.78;1.98;;;;;;;;;;6157071;23;20025;-77
2023/07/22 14:34:03;;;;;;;5.53;2.20;;;;;;;;;;6160037;23;20357;-76
2023/07/22 14:36:30;;;;;;;4.45;2.70;;;;;;;;;;6160374;23;20022;-77
2023/07/22 14:38:57;;;;;;;4.57;2.35;;;;;;;;;;6160400;23;20022;-78
2023/07/22 14:41:24;;;;;;;4.38;2.30;;;;;;;;;;6159665;23;20017;-77
2023/07/22 14:43:51;;;;;;;4.72;2.03;;;;;;;;;;6159569;23;20022;-77
2023/07/22 14:46:19;;;;;;;3.22;1.92;;;;;;;;;;6158457;23;20017;-76